»·PEaware :: AAL1017 KSNA-KPHX

AAL1017 :: KSNA-KPHX

FLIGHT INFORMATION

Flight Status: Arrived
Operator:
American Airlines
More flights by this operator :: More flights under this callsign
Pilot: Dave P. (45)
Aircraft: BOEING 737-800
(B738)
More flights by this aircraft type
Origin: KSNA John Wayne-Orange Co
United States
Destination: KPHX Phoenix Sky Harbor Intl
United States
More flights between these airports :: More routes between these airports
Route: +PIGGN2 CNERY BLH HYDRR1
File this flight plan on PilotEdge
Remarks: PBN / A1B1C1D1S1S2 DOF / 181104 REG / N738PM EET / KZAB0031 OPR / AAL PER / D RMK / TCAS SIMBRIEF
Altitude:
(Current/Filed)
33,000ft
Speed:
(Current/Filed)
459kts
Departed: 04-Nov-18 08:59 AM
Arrived: 04-Nov-18 09:51 AM
Distance/Time
Traveled:
294nm/0:52
Distance/Time
To Go:
Arrived

Flight Plot

Page will automatically refresh every two minutes.

Flight plan parsing failed; only flown route is shown


Map Options




Map Legend


Flown Route
Filed Route
Departure Airport
Arrival Airport
Navaid (VOR, NDB)
Fix

Horizontal Profiles

Position Reports

Time Latitude Longitude Heading Altitude Ground
Speed
04-Nov-18 08:30 33.676798 -117.863925 117 64ft 0kts
04-Nov-18 08:31 33.676798 -117.863925 117 64ft 0kts
04-Nov-18 08:32 33.676798 -117.863925 117 64ft 0kts
04-Nov-18 08:33 33.676798 -117.863925 117 64ft 0kts
04-Nov-18 08:34 33.676798 -117.863925 117 64ft 0kts
04-Nov-18 08:35 33.676798 -117.863925 117 64ft 0kts
04-Nov-18 08:36 33.676798 -117.863925 117 64ft 0kts
04-Nov-18 08:37 33.676798 -117.863925 117 64ft 0kts
04-Nov-18 08:38 33.676798 -117.863925 117 64ft 0kts
04-Nov-18 08:39 33.676798 -117.863925 117 64ft 0kts
04-Nov-18 08:40 33.676798 -117.863925 117 64ft 0kts
04-Nov-18 08:41 33.676798 -117.863925 117 64ft 0kts
04-Nov-18 08:42 33.676798 -117.863925 117 64ft 0kts
04-Nov-18 08:43 33.676798 -117.863925 117 64ft 0kts
04-Nov-18 08:44 33.676798 -117.863925 117 64ft 0kts
04-Nov-18 08:45 33.676798 -117.863925 117 64ft 0kts
04-Nov-18 08:46 33.676798 -117.863925 117 64ft 0kts
04-Nov-18 08:47 33.676798 -117.863925 117 64ft 0kts
04-Nov-18 08:48 33.676798 -117.863925 117 64ft 0kts
04-Nov-18 08:49 33.676798 -117.863925 117 64ft 0kts
04-Nov-18 08:50 33.676798 -117.863925 117 64ft 0kts
04-Nov-18 08:51 33.676798 -117.863925 117 64ft 0kts
04-Nov-18 08:52 33.676798 -117.863925 117 64ft 0kts
04-Nov-18 08:53 33.676798 -117.863925 117 64ft 0kts
04-Nov-18 08:54 33.676798 -117.863925 117 64ft 0kts
04-Nov-18 08:55 33.676892 -117.864230 97 64ft 2kts
04-Nov-18 08:56 33.676725 -117.864857 48 64ft 0kts
04-Nov-18 08:57 33.676725 -117.864857 48 64ft 0kts
04-Nov-18 08:58 33.677510 -117.864327 26 64ft 13kts
04-Nov-18 08:59 33.680559 -117.862952 305 64ft 7kts
04-Nov-18 09:00 33.681118 -117.864202 298 64ft 0kts
04-Nov-18 09:01 33.680984 -117.865532 207 64ft 15kts
04-Nov-18 09:02 33.650379 -117.884767 205 1724ft 165kts
04-Nov-18 09:03 33.593736 -117.896256 186 3676ft 254kts
04-Nov-18 09:04 33.541076 -117.846258 94 7058ft 283kts
04-Nov-18 09:05 33.551317 -117.749558 80 10403ft 300kts
04-Nov-18 09:06 33.564482 -117.640699 78 12194ft 364kts
04-Nov-18 09:07 33.579010 -117.517691 80 14924ft 379kts
04-Nov-18 09:08 33.555098 -117.390477 106 17454ft 407kts
04-Nov-18 09:09 33.514407 -117.261492 100 19657ft 417kts
04-Nov-18 09:10 33.502458 -117.124704 84 21637ft 417kts
04-Nov-18 09:11 33.499831 -116.983446 85 23407ft 429kts
04-Nov-18 09:12 33.497287 -116.838277 85 24960ft 440kts
04-Nov-18 09:13 33.495859 -116.689997 85 26422ft 450kts
04-Nov-18 09:14 33.493811 -116.538496 86 27741ft 461kts
04-Nov-18 09:15 33.491708 -116.383467 86 28980ft 469kts
04-Nov-18 09:16 33.489395 -116.228072 86 30688ft 466kts
04-Nov-18 09:17 33.487573 -116.073864 81 32376ft 458kts
04-Nov-18 09:18 33.517049 -115.928445 65 33045ft 447kts
04-Nov-18 09:19 33.558077 -115.788580 65 33050ft 444kts
04-Nov-18 09:20 33.598480 -115.649016 65 33050ft 444kts
04-Nov-18 09:21 33.623402 -115.504042 89 33057ft 462kts
04-Nov-18 09:22 33.612483 -115.350599 86 33058ft 459kts
04-Nov-18 09:23 33.608047 -115.200774 85 33064ft 443kts
04-Nov-18 09:24 33.604511 -115.052963 85 33070ft 443kts
04-Nov-18 09:25 33.600349 -114.904931 86 31994ft 442kts
04-Nov-18 09:26 33.594586 -114.759612 93 29987ft 432kts
04-Nov-18 09:27 33.568845 -114.620226 98 27985ft 422kts
04-Nov-18 09:28 33.542138 -114.485098 98 25988ft 413kts
04-Nov-18 09:29 33.516275 -114.351481 98 23984ft 410kts
04-Nov-18 09:30 33.490545 -114.221379 98 23076ft 391kts
04-Nov-18 09:31 33.464823 -114.092340 98 23076ft 416kts
04-Nov-18 09:32 33.437670 -113.956921 99 23066ft 419kts
04-Nov-18 09:33 33.410389 -113.821168 98 23065ft 419kts
04-Nov-18 09:34 33.382859 -113.683970 99 23028ft 424kts
04-Nov-18 09:35 33.355547 -113.550167 99 21367ft 408kts
04-Nov-18 09:36 33.329785 -113.419461 97 19511ft 397kts
04-Nov-18 09:37 33.308046 -113.291660 98 17685ft 388kts
04-Nov-18 09:38 33.288096 -113.166295 96 15878ft 379kts
04-Nov-18 09:39 33.274217 -113.045535 86 14702ft 353kts
04-Nov-18 09:39 33.277247 -112.949687 85 13594ft 341kts
04-Nov-18 09:41 33.283356 -112.820299 73 12130ft 324kts
04-Nov-18 09:41 33.309810 -112.742750 62 11723ft 284kts
04-Nov-18 09:43 33.347553 -112.643790 63 10347ft 277kts
04-Nov-18 09:43 33.373742 -112.575070 64 9730ft 261kts
04-Nov-18 09:45 33.405644 -112.490368 66 9220ft 222kts
04-Nov-18 09:45 33.424491 -112.436711 68 8617ft 196kts
04-Nov-18 09:46 33.432883 -112.373114 80 7306ft 190kts
04-Nov-18 09:47 33.440272 -112.311830 87 5896ft 183kts
04-Nov-18 09:48 33.440788 -112.251100 89 4738ft 181kts
04-Nov-18 09:49 33.440823 -112.191515 88 3787ft 175kts
04-Nov-18 09:50 33.440824 -112.134608 88 2878ft 165kts
04-Nov-18 09:51 33.440825 -112.080697 89 2028ft 154kts
04-Nov-18 09:52 33.440824 -112.031005 90 1230ft 147kts
04-Nov-18 09:53 33.440493 -112.004966 132 1143ft 8kts
04-Nov-18 09:54 33.439937 -112.004285 131 1143ft 0kts
04-Nov-18 09:55 33.438996 -112.002131 89 1143ft 16kts
04-Nov-18 09:56 33.438997 -111.996933 89 1143ft 10kts
04-Nov-18 09:57 33.437747 -111.995663 180 1143ft 12kts
04-Nov-18 09:58 33.437297 -111.996064 269 1143ft 0kts
04-Nov-18 09:59 33.437297 -111.996064 269 1143ft 0kts
04-Nov-18 10:00 33.437297 -111.996064 269 1143ft 0kts

Navigation Log

Ident Type
Flight plan parsing failed, navigation log unavailable